METAR AND TAF INFORMATION
METAR FOR KLRD
ADDS - METARS form results

(1243 UTC 20 January 2021)
Data provider http://aviationweather.gov/metar/data/
 
METAR text: KLRD 201232Z 32010KT 5SM -RA BR BKN005 OVC009 11/10 A3030 RMK AO2 P0002
Conditions at: KLRD (LAREDO , TX, US) observed 1232 UTC 20 January 2021
Temperature: 11.0°C (52°F)
Dewpoint: 10.0°C (50°F) [RH = 94%]
Pressure (altimeter): 30.30 inches Hg (1026.2 mb)
Winds: from the NW (320 degrees) at 12 MPH (10 knots; 5.1 m/s)
Visibility: 5 miles ( 8 km)
Ceiling: 500 feet AGL
Clouds: broken clouds at 500 feet AGL
overcast cloud deck at 900 feet AGL
Weather: -RA BR  (light rain, mist)

METAR text: KLRD 201224Z 32009KT 7SM -RA OVC007 11/11 A3029 RMK AO2 CIG 004V010 P0001
Conditions at: KLRD (LAREDO , TX, US) observed 1224 UTC 20 January 2021
Temperature: 11.0°C (52°F)
Dewpoint: 11.0°C (52°F) [RH = 100%]
Pressure (altimeter): 30.29 inches Hg (1025.8 mb)
Winds: from the NW (320 degrees) at 10 MPH (9 knots; 4.6 m/s)
Visibility: 7 miles (11 km)
Ceiling: 700 feet AGL
Clouds: overcast cloud deck at 700 feet AGL
Weather: -RA  (light rain)

METAR text: KLRD 201156Z 35009KT 8SM -RA OVC005 11/11 A3027 RMK AO2 RAE32B50 SLP251 P0000 60010 70024 T01110106 10144 20111 53002
Conditions at: KLRD (LAREDO , TX, US) observed 1156 UTC 20 January 2021
Temperature: 11.1°C (52°F)
Dewpoint: 10.6°C (51°F) [RH = 97%]
Pressure (altimeter): 30.27 inches Hg (1025.1 mb)
[Sea-level pressure: 1025.1 mb]
Winds: from the N (350 degrees) at 10 MPH (9 knots; 4.6 m/s)
Visibility: 8 miles (13 km)
Ceiling: 500 feet AGL
Clouds: overcast cloud deck at 500 feet AGL
Weather: -RA  (light rain)

METAR text: KLRD 201148Z AUTO 36007KT 9SM OVC005 11/11 A3027 RMK AO2 RAE32 CIG 005V009 P0000
Conditions at: KLRD (LAREDO , TX, US) observed 1148 UTC 20 January 2021
Temperature: 11.0°C (52°F)
Dewpoint: 11.0°C (52°F) [RH = 100%]
Pressure (altimeter): 30.27 inches Hg (1025.1 mb)
Winds: from the N (360 degrees) at 8 MPH (7 knots; 3.6 m/s)
Visibility: 9 miles (14 km)
Ceiling: 500 feet AGL
Clouds: overcast cloud deck at 500 feet AGL
Weather: automated observation with no human augmentation;
there may or may not be significant weather present at this time

Forecast for: KLRD (LAREDO , TX, US)
Text: KLRD 201120Z 2012/2112 03009KT 5SM -RA BR OVC007
Forecast period: 1200 to 1500 UTC 20 January 2021
Forecast type: FROM: standard forecast or significant change
Winds: from the NNE (30 degrees) at 10 MPH (9 knots; 4.6 m/s)
Visibility: 5 miles (8 km)
Ceiling: 700 feet AGL
Clouds: overcast cloud deck at 700 feet AGL
Weather: -RA BR  (light rain, mist)
Text: FM201500 36010KT 2SM RA BR OVC003
Forecast period: 1500 to 2200 UTC 20 January 2021
Forecast type: FROM: standard forecast or significant change
Winds: from the N (360 degrees) at 12 MPH (10 knots; 5.1 m/s)
Visibility: 2.00 miles (3.22 km)
Ceiling: 300 feet AGL
Clouds: overcast cloud deck at 300 feet AGL
Weather: RA BR  (moderate rain, mist)
Text: FM202200 32006KT 5SM -RA BR OVC007
Forecast period: 2200 UTC 20 January 2021 to 1200 UTC 21 January 2021
Forecast type: FROM: standard forecast or significant change
Winds: from the NW (320 degrees) at 7 MPH (6 knots; 3.1 m/s)
Visibility: 5 miles (8 km)
Ceiling: 700 feet AGL
Clouds: overcast cloud deck at 700 feet AGL
Weather: -RA BR  (light rain, mist)

 AIRPORT MAP

 RUNWAY INFORMATION
Runway 14 Runway length 5928 ft Runway width 150 ft
Runway elevation 505 ft Runway displaced threshold 0 ft Runway heading 147
Runway 32 Runway length 5928 ft Runway width 150 ft
Runway elevation 467 ft Runway displaced threshold 0 ft Runway heading 327
Runway 17L Runway length 8236 ft Runway width 150 ft
Runway elevation 499 ft Runway displaced threshold 0 ft Runway heading 183
Runway 35R Runway length 8236 ft Runway width 150 ft
Runway elevation 475 ft Runway displaced threshold 0 ft Runway heading 3
Runway 17R Runway length 7830 ft Runway width 150 ft
Runway elevation 504 ft Runway displaced threshold 0 ft Runway heading 183
Runway 35L Runway length 7830 ft Runway width 150 ft
Runway elevation 484 ft Runway displaced threshold 0 ft Runway heading 3

 AIRPORT FREQUENCIES
Type ATIS Name ATIS Frequency 125.775 MHZ
Type CNTR Name HOUSTON CN Frequency 127.8 MHZ
Type CTAF Name CTAF Frequency 120.1 MHZ
Type GND Name GND Frequency 121.8 MHZ
Type RDO Name SAN ANGELO Frequency 122.3 MHZ
Type TWR Name TWR Frequency 120.1 MHZ
Type UNIC Name UNICOM Frequency 122.95 MHZ

 AIRPORT NEAR NAVIGATION AIDS
Type NDB Name Pekks Frequency 405 KHZ